sensor_id;sensor_type;location;lat;lon;timestamp;temperature;humidity
6462;DHT22;3264;42.862;25.098;2022-12-24T00:02:00;2.90;99.90
6462;DHT22;3264;42.862;25.098;2022-12-24T00:04:29;2.80;99.90
6462;DHT22;3264;42.862;25.098;2022-12-24T00:06:57;2.90;99.90
6462;DHT22;3264;42.862;25.098;2022-12-24T00:09:26;3.00;99.90
6462;DHT22;3264;42.862;25.098;2022-12-24T00:11:54;3.10;99.90
6462;DHT22;3264;42.862;25.098;2022-12-24T00:14:25;3.10;99.90
6462;DHT22;3264;42.862;25.098;2022-12-24T00:16:52;3.20;99.90
6462;DHT22;3264;42.862;25.098;2022-12-24T00:19:21;3.10;99.90
6462;DHT22;3264;42.862;25.098;2022-12-24T00:21:50;3.10;99.90
6462;DHT22;3264;42.862;25.098;2022-12-24T00:24:18;3.00;99.90
6462;DHT22;3264;42.862;25.098;2022-12-24T00:26:46;2.80;99.90
6462;DHT22;3264;42.862;25.098;2022-12-24T00:29:15;2.80;99.90
6462;DHT22;3264;42.862;25.098;2022-12-24T00:31:44;2.70;99.90
6462;DHT22;3264;42.862;25.098;2022-12-24T00:34:12;2.70;99.90
6462;DHT22;3264;42.862;25.098;2022-12-24T00:36:41;2.70;99.90
6462;DHT22;3264;42.862;25.098;2022-12-24T00:39:09;2.80;99.90
6462;DHT22;3264;42.862;25.098;2022-12-24T00:41:38;2.80;99.90
6462;DHT22;3264;42.862;25.098;2022-12-24T00:44:07;2.80;99.90
6462;DHT22;3264;42.862;25.098;2022-12-24T00:46:38;2.80;99.90
6462;DHT22;3264;42.862;25.098;2022-12-24T00:49:10;2.80;99.90
6462;DHT22;3264;42.862;25.098;2022-12-24T00:51:39;2.70;99.90
6462;DHT22;3264;42.862;25.098;2022-12-24T00:54:08;2.70;99.90
6462;DHT22;3264;42.862;25.098;2022-12-24T00:56:37;2.70;99.90
6462;DHT22;3264;42.862;25.098;2022-12-24T00:59:07;2.60;99.90
6462;DHT22;3264;42.862;25.098;2022-12-24T01:01:35;2.60;99.90
6462;DHT22;3264;42.862;25.098;2022-12-24T01:04:04;2.70;99.90
6462;DHT22;3264;42.862;25.098;2022-12-24T01:06:50;2.70;99.90
6462;DHT22;3264;42.862;25.098;2022-12-24T01:09:18;2.50;99.90
6462;DHT22;3264;42.862;25.098;2022-12-24T01:11:46;2.40;99.90
6462;DHT22;3264;42.862;25.098;2022-12-24T01:14:15;2.60;99.90
6462;DHT22;3264;42.862;25.098;2022-12-24T01:16:43;2.50;99.90
6462;DHT22;3264;42.862;25.098;2022-12-24T01:19:11;2.50;99.90
6462;DHT22;3264;42.862;25.098;2022-12-24T01:21:39;2.50;99.90
6462;DHT22;3264;42.862;25.098;2022-12-24T01:24:13;2.40;99.90
6462;DHT22;3264;42.862;25.098;2022-12-24T01:26:41;2.20;99.90
6462;DHT22;3264;42.862;25.098;2022-12-24T01:29:09;2.10;99.90
6462;DHT22;3264;42.862;25.098;2022-12-24T01:31:38;2.00;99.90
6462;DHT22;3264;42.862;25.098;2022-12-24T01:34:07;2.00;99.90
6462;DHT22;3264;42.862;25.098;2022-12-24T01:36:35;2.10;99.90
6462;DHT22;3264;42.862;25.098;2022-12-24T01:39:05;2.10;99.90
6462;DHT22;3264;42.862;25.098;2022-12-24T01:41:35;2.10;99.90
6462;DHT22;3264;42.862;25.098;2022-12-24T01:44:22;2.20;99.90
6462;DHT22;3264;42.862;25.098;2022-12-24T01:46:55;2.20;99.90
6462;DHT22;3264;42.862;25.098;2022-12-24T01:49:24;2.10;99.90
6462;DHT22;3264;42.862;25.098;2022-12-24T01:51:55;2.00;99.90
6462;DHT22;3264;42.862;25.098;2022-12-24T01:54:27;1.80;99.90
6462;DHT22;3264;42.862;25.098;2022-12-24T01:57:00;1.90;99.90
6462;DHT22;3264;42.862;25.098;2022-12-24T01:59:29;2.00;99.90
6462;DHT22;3264;42.862;25.098;2022-12-24T02:02:00;2.20;99.90
6462;DHT22;3264;42.862;25.098;2022-12-24T02:04:35;2.30;99.90
6462;DHT22;3264;42.862;25.098;2022-12-24T02:07:05;2.20;99.90
6462;DHT22;3264;42.862;25.098;2022-12-24T02:09:35;2.10;99.90
6462;DHT22;3264;42.862;25.098;2022-12-24T02:12:06;2.10;99.90
6462;DHT22;3264;42.862;25.098;2022-12-24T02:14:35;2.10;99.90
6462;DHT22;3264;42.862;25.098;2022-12-24T02:17:16;2.00;99.90
6462;DHT22;3264;42.862;25.098;2022-12-24T02:20:12;1.90;99.90
6462;DHT22;3264;42.862;25.098;2022-12-24T02:22:52;1.80;99.90
6462;DHT22;3264;42.862;25.098;2022-12-24T02:25:44;1.80;99.90
6462;DHT22;3264;42.862;25.098;2022-12-24T02:28:45;1.80;99.90
6462;DHT22;3264;42.862;25.098;2022-12-24T02:31:18;1.90;99.90
6462;DHT22;3264;42.862;25.098;2022-12-24T02:33:51;2.00;99.90
6462;DHT22;3264;42.862;25.098;2022-12-24T02:36:26;2.00;99.90
6462;DHT22;3264;42.862;25.098;2022-12-24T02:39:01;1.90;99.90
6462;DHT22;3264;42.862;25.098;2022-12-24T02:41:32;1.70;99.90
6462;DHT22;3264;42.862;25.098;2022-12-24T02:44:17;1.60;99.90
6462;DHT22;3264;42.862;25.098;2022-12-24T02:46:49;1.60;99.90
6462;DHT22;3264;42.862;25.098;2022-12-24T02:49:18;1.60;99.90
6462;DHT22;3264;42.862;25.098;2022-12-24T02:51:46;1.60;99.90
6462;DHT22;3264;42.862;25.098;2022-12-24T02:54:14;1.60;99.90
6462;DHT22;3264;42.862;25.098;2022-12-24T02:56:54;1.60;99.90
6462;DHT22;3264;42.862;25.098;2022-12-24T02:59:48;1.80;99.90
6462;DHT22;3264;42.862;25.098;2022-12-24T03:02:29;1.90;99.90
6462;DHT22;3264;42.862;25.098;2022-12-24T03:05:08;1.80;99.90
6462;DHT22;3264;42.862;25.098;2022-12-24T03:07:42;1.60;99.90
6462;DHT22;3264;42.862;25.098;2022-12-24T03:10:19;1.60;99.90
6462;DHT22;3264;42.862;25.098;2022-12-24T03:12:51;1.60;99.90
6462;DHT22;3264;42.862;25.098;2022-12-24T03:15:22;1.50;99.90
6462;DHT22;3264;42.862;25.098;2022-12-24T03:17:56;1.60;99.90
6462;DHT22;3264;42.862;25.098;2022-12-24T03:20:31;1.40;99.90
6462;DHT22;3264;42.862;25.098;2022-12-24T03:23:00;1.30;99.90
6462;DHT22;3264;42.862;25.098;2022-12-24T03:25:28;1.40;99.90
6462;DHT22;3264;42.862;25.098;2022-12-24T03:28:00;1.50;99.90
6462;DHT22;3264;42.862;25.098;2022-12-24T03:30:30;1.50;99.90
6462;DHT22;3264;42.862;25.098;2022-12-24T03:32:59;1.60;99.90
6462;DHT22;3264;42.862;25.098;2022-12-24T03:35:28;1.60;99.90
6462;DHT22;3264;42.862;25.098;2022-12-24T03:37:56;1.50;99.90
6462;DHT22;3264;42.862;25.098;2022-12-24T03:40:24;1.60;99.90
6462;DHT22;3264;42.862;25.098;2022-12-24T03:42:52;1.50;99.90
6462;DHT22;3264;42.862;25.098;2022-12-24T03:45:21;1.50;99.90
6462;DHT22;3264;42.862;25.098;2022-12-24T03:47:49;1.40;99.90
6462;DHT22;3264;42.862;25.098;2022-12-24T03:50:19;1.40;99.90
6462;DHT22;3264;42.862;25.098;2022-12-24T03:52:48;1.40;99.90
6462;DHT22;3264;42.862;25.098;2022-12-24T03:55:15;1.50;99.90
6462;DHT22;3264;42.862;25.098;2022-12-24T03:57:44;1.50;99.90
6462;DHT22;3264;42.862;25.098;2022-12-24T04:00:13;1.30;99.90
6462;DHT22;3264;42.862;25.098;2022-12-24T04:02:41;1.30;99.90
6462;DHT22;3264;42.862;25.098;2022-12-24T04:05:13;1.30;99.90
6462;DHT22;3264;42.862;25.098;2022-12-24T04:07:44;1.20;99.90
6462;DHT22;3264;42.862;25.098;2022-12-24T04:10:12;1.20;99.90
6462;DHT22;3264;42.862;25.098;2022-12-24T04:12:40;1.20;99.90
6462;DHT22;3264;42.862;25.098;2022-12-24T04:15:09;1.30;99.90
6462;DHT22;3264;42.862;25.098;2022-12-24T04:17:38;1.40;99.90
6462;DHT22;3264;42.862;25.098;2022-12-24T04:20:19;1.40;99.90
6462;DHT22;3264;42.862;25.098;2022-12-24T04:22:49;1.30;99.90
6462;DHT22;3264;42.862;25.098;2022-12-24T04:25:17;1.20;99.90
6462;DHT22;3264;42.862;25.098;2022-12-24T04:27:45;1.20;99.90
6462;DHT22;3264;42.862;25.098;2022-12-24T04:30:14;1.20;99.90
6462;DHT22;3264;42.862;25.098;2022-12-24T04:32:43;1.30;99.90
6462;DHT22;3264;42.862;25.098;2022-12-24T04:35:10;1.40;99.90
6462;DHT22;3264;42.862;25.098;2022-12-24T04:37:38;1.50;99.90
6462;DHT22;3264;42.862;25.098;2022-12-24T04:40:08;1.50;99.90
6462;DHT22;3264;42.862;25.098;2022-12-24T04:42:36;1.50;99.90
6462;DHT22;3264;42.862;25.098;2022-12-24T04:45:05;1.50;99.90
6462;DHT22;3264;42.862;25.098;2022-12-24T04:47:33;1.40;99.90
6462;DHT22;3264;42.862;25.098;2022-12-24T04:50:07;1.40;99.90
6462;DHT22;3264;42.862;25.098;2022-12-24T04:52:35;1.50;99.90
6462;DHT22;3264;42.862;25.098;2022-12-24T04:55:05;1.50;99.90
6462;DHT22;3264;42.862;25.098;2022-12-24T04:57:35;1.60;99.90
6462;DHT22;3264;42.862;25.098;2022-12-24T05:00:05;1.60;99.90
6462;DHT22;3264;42.862;25.098;2022-12-24T05:02:34;1.50;99.90
6462;DHT22;3264;42.862;25.098;2022-12-24T05:05:05;1.40;99.90
6462;DHT22;3264;42.862;25.098;2022-12-24T05:07:34;1.30;99.90
6462;DHT22;3264;42.862;25.098;2022-12-24T05:10:01;1.30;99.90
6462;DHT22;3264;42.862;25.098;2022-12-24T05:12:31;1.30;99.90
6462;DHT22;3264;42.862;25.098;2022-12-24T05:15:01;1.20;99.90
6462;DHT22;3264;42.862;25.098;2022-12-24T05:17:30;1.10;99.90
6462;DHT22;3264;42.862;25.098;2022-12-24T05:19:58;1.00;99.90
6462;DHT22;3264;42.862;25.098;2022-12-24T05:22:27;0.90;99.90
6462;DHT22;3264;42.862;25.098;2022-12-24T05:25:13;0.90;99.90
6462;DHT22;3264;42.862;25.098;2022-12-24T05:27:59;0.90;99.90
6462;DHT22;3264;42.862;25.098;2022-12-24T05:30:28;0.80;99.90
6462;DHT22;3264;42.862;25.098;2022-12-24T05:32:56;0.90;99.90
6462;DHT22;3264;42.862;25.098;2022-12-24T05:35:25;0.90;99.90
6462;DHT22;3264;42.862;25.098;2022-12-24T05:37:56;0.90;99.90
6462;DHT22;3264;42.862;25.098;2022-12-24T05:40:25;0.80;99.90
6462;DHT22;3264;42.862;25.098;2022-12-24T05:42:53;1.00;99.90
6462;DHT22;3264;42.862;25.098;2022-12-24T05:45:22;1.00;99.90
6462;DHT22;3264;42.862;25.098;2022-12-24T05:47:51;1.10;99.90
6462;DHT22;3264;42.862;25.098;2022-12-24T05:50:20;1.20;99.90
6462;DHT22;3264;42.862;25.098;2022-12-24T05:52:48;1.20;99.90
6462;DHT22;3264;42.862;25.098;2022-12-24T05:55:17;1.50;99.90
6462;DHT22;3264;42.862;25.098;2022-12-24T05:57:45;1.50;99.90
6462;DHT22;3264;42.862;25.098;2022-12-24T06:00:14;1.50;99.90
6462;DHT22;3264;42.862;25.098;2022-12-24T06:02:41;1.50;99.90
6462;DHT22;3264;42.862;25.098;2022-12-24T06:05:11;1.50;99.90
6462;DHT22;3264;42.862;25.098;2022-12-24T06:07:40;1.40;99.90
6462;DHT22;3264;42.862;25.098;2022-12-24T06:10:08;1.30;99.90
6462;DHT22;3264;42.862;25.098;2022-12-24T06:12:37;1.30;99.90
6462;DHT22;3264;42.862;25.098;2022-12-24T06:15:05;1.20;99.90
6462;DHT22;3264;42.862;25.098;2022-12-24T06:17:33;1.20;99.90
6462;DHT22;3264;42.862;25.098;2022-12-24T06:20:02;1.20;99.90
6462;DHT22;3264;42.862;25.098;2022-12-24T06:22:33;1.20;99.90
6462;DHT22;3264;42.862;25.098;2022-12-24T06:25:01;1.30;99.90
6462;DHT22;3264;42.862;25.098;2022-12-24T06:27:34;2.60;99.90
6462;DHT22;3264;42.862;25.098;2022-12-24T06:30:03;4.00;99.90
6462;DHT22;3264;42.862;25.098;2022-12-24T06:32:32;5.10;99.90
6462;DHT22;3264;42.862;25.098;2022-12-24T06:34:59;6.10;99.90
6462;DHT22;3264;42.862;25.098;2022-12-24T06:37:28;6.80;99.90
6462;DHT22;3264;42.862;25.098;2022-12-24T06:39:57;7.20;99.90
6462;DHT22;3264;42.862;25.098;2022-12-24T06:42:25;6.40;99.10
6462;DHT22;3264;42.862;25.098;2022-12-24T06:44:53;6.60;99.90
6462;DHT22;3264;42.862;25.098;2022-12-24T06:47:21;6.80;98.70
6462;DHT22;3264;42.862;25.098;2022-12-24T06:49:51;6.90;99.90
6462;DHT22;3264;42.862;25.098;2022-12-24T06:52:18;6.90;99.90
6462;DHT22;3264;42.862;25.098;2022-12-24T06:54:46;6.00;99.90
6462;DHT22;3264;42.862;25.098;2022-12-24T06:57:16;4.50;99.90
6462;DHT22;3264;42.862;25.098;2022-12-24T06:59:44;4.00;99.90
6462;DHT22;3264;42.862;25.098;2022-12-24T07:02:12;4.20;99.90
6462;DHT22;3264;42.862;25.098;2022-12-24T07:04:40;4.20;99.90
6462;DHT22;3264;42.862;25.098;2022-12-24T07:07:09;4.50;99.90
6462;DHT22;3264;42.862;25.098;2022-12-24T07:09:37;4.70;99.90
6462;DHT22;3264;42.862;25.098;2022-12-24T07:12:29;5.10;99.90
6462;DHT22;3264;42.862;25.098;2022-12-24T07:14:58;5.00;99.90
6462;DHT22;3264;42.862;25.098;2022-12-24T07:17:27;5.30;99.90
6462;DHT22;3264;42.862;25.098;2022-12-24T07:19:55;5.50;99.90
6462;DHT22;3264;42.862;25.098;2022-12-24T07:22:22;5.70;99.90
6462;DHT22;3264;42.862;25.098;2022-12-24T07:24:50;6.10;99.90
6462;DHT22;3264;42.862;25.098;2022-12-24T07:27:19;6.10;99.90
6462;DHT22;3264;42.862;25.098;2022-12-24T07:29:48;6.60;99.90
6462;DHT22;3264;42.862;25.098;2022-12-24T07:32:15;6.70;99.90
6462;DHT22;3264;42.862;25.098;2022-12-24T07:34:46;6.70;99.90
6462;DHT22;3264;42.862;25.098;2022-12-24T07:37:17;7.00;99.90
6462;DHT22;3264;42.862;25.098;2022-12-24T07:39:46;6.60;99.90
6462;DHT22;3264;42.862;25.098;2022-12-24T07:42:15;7.00;99.90
6462;DHT22;3264;42.862;25.098;2022-12-24T07:44:42;7.50;99.90
6462;DHT22;3264;42.862;25.098;2022-12-24T07:47:13;9.10;99.80
6462;DHT22;3264;42.862;25.098;2022-12-24T07:49:41;9.10;97.70
6462;DHT22;3264;42.862;25.098;2022-12-24T07:52:10;9.10;97.70
6462;DHT22;3264;42.862;25.098;2022-12-24T07:54:37;9.40;96.20
6462;DHT22;3264;42.862;25.098;2022-12-24T07:57:06;10.70;91.20
6462;DHT22;3264;42.862;25.098;2022-12-24T07:59:34;13.00;84.80
6462;DHT22;3264;42.862;25.098;2022-12-24T08:02:02;13.00;83.30
6462;DHT22;3264;42.862;25.098;2022-12-24T08:04:32;13.70;77.40
6462;DHT22;3264;42.862;25.098;2022-12-24T08:07:01;14.90;73.50
6462;DHT22;3264;42.862;25.098;2022-12-24T08:09:30;12.20;78.20
6462;DHT22;3264;42.862;25.098;2022-12-24T08:11:58;9.90;85.60
6462;DHT22;3264;42.862;25.098;2022-12-24T08:14:28;9.00;93.10
6462;DHT22;3264;42.862;25.098;2022-12-24T08:16:55;8.50;96.90
6462;DHT22;3264;42.862;25.098;2022-12-24T08:19:24;8.30;97.20
6462;DHT22;3264;42.862;25.098;2022-12-24T08:21:54;8.30;98.80
6462;DHT22;3264;42.862;25.098;2022-12-24T08:24:23;8.50;99.70
6462;DHT22;3264;42.862;25.098;2022-12-24T08:26:51;9.00;98.70
6462;DHT22;3264;42.862;25.098;2022-12-24T08:29:19;9.50;98.10
6462;DHT22;3264;42.862;25.098;2022-12-24T08:31:46;8.80;97.20
6462;DHT22;3264;42.862;25.098;2022-12-24T08:34:15;8.50;98.70
6462;DHT22;3264;42.862;25.098;2022-12-24T08:36:43;8.50;99.80
6462;DHT22;3264;42.862;25.098;2022-12-24T08:39:14;8.40;98.70
6462;DHT22;3264;42.862;25.098;2022-12-24T08:41:41;8.70;99.50
6462;DHT22;3264;42.862;25.098;2022-12-24T08:44:10;9.00;98.90
6462;DHT22;3264;42.862;25.098;2022-12-24T08:46:40;9.50;98.00
6462;DHT22;3264;42.862;25.098;2022-12-24T08:49:08;10.30;97.00
6462;DHT22;3264;42.862;25.098;2022-12-24T08:51:36;10.30;95.20
6462;DHT22;3264;42.862;25.098;2022-12-24T08:54:03;10.70;95.60
6462;DHT22;3264;42.862;25.098;2022-12-24T08:56:34;11.60;92.50
6462;DHT22;3264;42.862;25.098;2022-12-24T08:59:02;11.30;91.70
6462;DHT22;3264;42.862;25.098;2022-12-24T09:01:31;11.20;92.30
6462;DHT22;3264;42.862;25.098;2022-12-24T09:04:01;10.40;92.40
6462;DHT22;3264;42.862;25.098;2022-12-24T09:06:32;10.40;93.60
6462;DHT22;3264;42.862;25.098;2022-12-24T09:09:00;10.30;94.10
6462;DHT22;3264;42.862;25.098;2022-12-24T09:11:29;10.40;94.50
6462;DHT22;3264;42.862;25.098;2022-12-24T09:13:58;10.60;95.40
6462;DHT22;3264;42.862;25.098;2022-12-24T09:16:26;10.40;94.70
6462;DHT22;3264;42.862;25.098;2022-12-24T09:18:56;10.20;95.90
6462;DHT22;3264;42.862;25.098;2022-12-24T09:21:23;10.30;95.40
6462;DHT22;3264;42.862;25.098;2022-12-24T09:23:52;10.20;95.90
6462;DHT22;3264;42.862;25.098;2022-12-24T09:26:22;10.10;96.00
6462;DHT22;3264;42.862;25.098;2022-12-24T09:28:51;9.90;98.60
6462;DHT22;3264;42.862;25.098;2022-12-24T09:31:21;10.00;98.50
6462;DHT22;3264;42.862;25.098;2022-12-24T09:33:50;9.90;99.10
6462;DHT22;3264;42.862;25.098;2022-12-24T09:36:20;9.90;99.90
6462;DHT22;3264;42.862;25.098;2022-12-24T09:38:48;9.80;99.70
6462;DHT22;3264;42.862;25.098;2022-12-24T09:41:29;9.70;99.50
6462;DHT22;3264;42.862;25.098;2022-12-24T09:44:03;9.70;99.50
6462;DHT22;3264;42.862;25.098;2022-12-24T09:46:38;9.70;99.70
6462;DHT22;3264;42.862;25.098;2022-12-24T09:49:10;9.90;99.60
6462;DHT22;3264;42.862;25.098;2022-12-24T09:51:42;9.90;99.30
6462;DHT22;3264;42.862;25.098;2022-12-24T09:54:16;10.10;98.90
6462;DHT22;3264;42.862;25.098;2022-12-24T09:56:47;10.00;97.30
6462;DHT22;3264;42.862;25.098;2022-12-24T09:59:17;10.30;98.80
6462;DHT22;3264;42.862;25.098;2022-12-24T10:01:50;10.10;97.50
6462;DHT22;3264;42.862;25.098;2022-12-24T10:04:22;10.50;97.20
6462;DHT22;3264;42.862;25.098;2022-12-24T10:06:56;10.80;96.40
6462;DHT22;3264;42.862;25.098;2022-12-24T10:09:53;11.10;95.30
6462;DHT22;3264;42.862;25.098;2022-12-24T10:12:30;11.00;94.00
6462;DHT22;3264;42.862;25.098;2022-12-24T10:15:09;11.20;93.20
6462;DHT22;3264;42.862;25.098;2022-12-24T10:17:51;11.40;94.20
6462;DHT22;3264;42.862;25.098;2022-12-24T10:20:36;11.50;92.80
6462;DHT22;3264;42.862;25.098;2022-12-24T10:23:14;11.60;92.70
6462;DHT22;3264;42.862;25.098;2022-12-24T10:25:48;11.70;94.00
6462;DHT22;3264;42.862;25.098;2022-12-24T10:28:26;11.70;93.30
6462;DHT22;3264;42.862;25.098;2022-12-24T10:31:00;11.70;93.90
6462;DHT22;3264;42.862;25.098;2022-12-24T10:33:35;11.60;94.00
6462;DHT22;3264;42.862;25.098;2022-12-24T10:36:07;11.40;96.30
6462;DHT22;3264;42.862;25.098;2022-12-24T10:38:37;11.20;96.90
6462;DHT22;3264;42.862;25.098;2022-12-24T10:41:25;11.00;97.00
6462;DHT22;3264;42.862;25.098;2022-12-24T10:43:54;10.80;97.40
6462;DHT22;3264;42.862;25.098;2022-12-24T10:46:27;10.60;96.10
6462;DHT22;3264;42.862;25.098;2022-12-24T10:49:02;10.60;96.20
6462;DHT22;3264;42.862;25.098;2022-12-24T10:51:36;10.70;96.10
6462;DHT22;3264;42.862;25.098;2022-12-24T10:54:11;10.70;96.30
6462;DHT22;3264;42.862;25.098;2022-12-24T10:56:40;10.70;96.80
6462;DHT22;3264;42.862;25.098;2022-12-24T10:59:24;10.60;96.70
6462;DHT22;3264;42.862;25.098;2022-12-24T11:01:52;10.80;96.50
6462;DHT22;3264;42.862;25.098;2022-12-24T11:04:24;10.90;96.80
6462;DHT22;3264;42.862;25.098;2022-12-24T11:06:54;11.10;95.10
6462;DHT22;3264;42.862;25.098;2022-12-24T11:09:26;10.90;95.20
6462;DHT22;3264;42.862;25.098;2022-12-24T11:11:56;10.90;95.10
6462;DHT22;3264;42.862;25.098;2022-12-24T11:14:27;10.90;95.20
6462;DHT22;3264;42.862;25.098;2022-12-24T11:16:57;10.90;95.20
6462;DHT22;3264;42.862;25.098;2022-12-24T11:19:30;10.90;96.20
6462;DHT22;3264;42.862;25.098;2022-12-24T11:22:01;10.90;95.40
6462;DHT22;3264;42.862;25.098;2022-12-24T11:24:37;10.90;95.30
6462;DHT22;3264;42.862;25.098;2022-12-24T11:27:31;10.90;95.90
6462;DHT22;3264;42.862;25.098;2022-12-24T11:30:28;10.90;96.10
6462;DHT22;3264;42.862;25.098;2022-12-24T11:33:17;10.90;96.20
6462;DHT22;3264;42.862;25.098;2022-12-24T11:35:52;10.80;98.60
6462;DHT22;3264;42.862;25.098;2022-12-24T11:38:22;10.90;99.90
6462;DHT22;3264;42.862;25.098;2022-12-24T11:41:01;10.90;99.90
6462;DHT22;3264;42.862;25.098;2022-12-24T11:43:40;11.00;99.90
6462;DHT22;3264;42.862;25.098;2022-12-24T11:46:34;11.10;99.90
6462;DHT22;3264;42.862;25.098;2022-12-24T11:49:16;11.30;99.90
6462;DHT22;3264;42.862;25.098;2022-12-24T11:52:11;11.40;99.90
6462;DHT22;3264;42.862;25.098;2022-12-24T11:54:49;11.30;99.90
6462;DHT22;3264;42.862;25.098;2022-12-24T11:57:19;11.30;99.90
6462;DHT22;3264;42.862;25.098;2022-12-24T11:59:50;11.10;99.90
6462;DHT22;3264;42.862;25.098;2022-12-24T12:02:21;11.20;99.90
6462;DHT22;3264;42.862;25.098;2022-12-24T12:04:54;11.20;99.90
6462;DHT22;3264;42.862;25.098;2022-12-24T12:07:28;11.30;99.90
6462;DHT22;3264;42.862;25.098;2022-12-24T12:10:00;11.30;99.90
6462;DHT22;3264;42.862;25.098;2022-12-24T12:12:31;11.30;99.90
6462;DHT22;3264;42.862;25.098;2022-12-24T12:15:02;11.10;99.90
6462;DHT22;3264;42.862;25.098;2022-12-24T12:17:35;11.20;99.90
6462;DHT22;3264;42.862;25.098;2022-12-24T12:20:10;11.30;99.90
6462;DHT22;3264;42.862;25.098;2022-12-24T12:22:47;11.40;99.90
6462;DHT22;3264;42.862;25.098;2022-12-24T12:25:24;11.60;99.90
6462;DHT22;3264;42.862;25.098;2022-12-24T12:27:55;11.70;99.90
6462;DHT22;3264;42.862;25.098;2022-12-24T12:30:24;11.80;99.90
6462;DHT22;3264;42.862;25.098;2022-12-24T12:32:58;11.80;99.90
6462;DHT22;3264;42.862;25.098;2022-12-24T12:35:30;11.70;99.90
6462;DHT22;3264;42.862;25.098;2022-12-24T12:38:04;11.70;99.90
6462;DHT22;3264;42.862;25.098;2022-12-24T12:40:47;11.80;99.90
6462;DHT22;3264;42.862;25.098;2022-12-24T12:43:36;11.70;99.90
6462;DHT22;3264;42.862;25.098;2022-12-24T12:46:11;11.70;99.90
6462;DHT22;3264;42.862;25.098;2022-12-24T12:48:53;11.60;99.90
6462;DHT22;3264;42.862;25.098;2022-12-24T12:51:31;11.70;99.90
6462;DHT22;3264;42.862;25.098;2022-12-24T12:54:17;11.70;99.90
6462;DHT22;3264;42.862;25.098;2022-12-24T12:56:50;11.70;99.90
6462;DHT22;3264;42.862;25.098;2022-12-24T12:59:27;11.80;99.90
6462;DHT22;3264;42.862;25.098;2022-12-24T13:02:02;11.80;99.90
6462;DHT22;3264;42.862;25.098;2022-12-24T13:05:10;11.80;99.90
6462;DHT22;3264;42.862;25.098;2022-12-24T13:07:59;11.70;99.90
6462;DHT22;3264;42.862;25.098;2022-12-24T13:10:52;11.70;99.90
6462;DHT22;3264;42.862;25.098;2022-12-24T13:13:46;11.60;99.90
6462;DHT22;3264;42.862;25.098;2022-12-24T13:16:47;11.60;99.90
6462;DHT22;3264;42.862;25.098;2022-12-24T13:19:28;11.70;99.90
6462;DHT22;3264;42.862;25.098;2022-12-24T13:22:01;11.50;99.90
6462;DHT22;3264;42.862;25.098;2022-12-24T13:24:31;11.40;99.90
6462;DHT22;3264;42.862;25.098;2022-12-24T13:27:05;11.40;99.90
6462;DHT22;3264;42.862;25.098;2022-12-24T13:29:43;11.50;99.90
6462;DHT22;3264;42.862;25.098;2022-12-24T13:32:39;11.50;99.90
6462;DHT22;3264;42.862;25.098;2022-12-24T13:35:35;11.50;99.90
6462;DHT22;3264;42.862;25.098;2022-12-24T13:38:40;11.50;99.90
6462;DHT22;3264;42.862;25.098;2022-12-24T13:44:28;11.40;99.90
6462;DHT22;3264;42.862;25.098;2022-12-24T13:47:17;11.30;99.90
6462;DHT22;3264;42.862;25.098;2022-12-24T13:49:50;11.30;99.90
6462;DHT22;3264;42.862;25.098;2022-12-24T13:52:24;11.20;99.90
6462;DHT22;3264;42.862;25.098;2022-12-24T13:55:12;11.20;99.90
6462;DHT22;3264;42.862;25.098;2022-12-24T13:57:45;11.10;99.90
6462;DHT22;3264;42.862;25.098;2022-12-24T14:00:38;11.10;99.90
6462;DHT22;3264;42.862;25.098;2022-12-24T14:03:20;11.00;99.90
6462;DHT22;3264;42.862;25.098;2022-12-24T14:05:52;11.00;99.90
6462;DHT22;3264;42.862;25.098;2022-12-24T14:08:34;10.90;99.90
6462;DHT22;3264;42.862;25.098;2022-12-24T14:11:10;10.80;99.90
6462;DHT22;3264;42.862;25.098;2022-12-24T14:13:53;10.80;99.90
6462;DHT22;3264;42.862;25.098;2022-12-24T14:16:26;10.60;99.90
6462;DHT22;3264;42.862;25.098;2022-12-24T14:18:59;10.50;99.90
6462;DHT22;3264;42.862;25.098;2022-12-24T14:21:31;10.50;99.90
6462;DHT22;3264;42.862;25.098;2022-12-24T14:24:05;10.40;99.90
6462;DHT22;3264;42.862;25.098;2022-12-24T14:26:43;10.40;99.90
6462;DHT22;3264;42.862;25.098;2022-12-24T14:29:17;10.30;99.90
6462;DHT22;3264;42.862;25.098;2022-12-24T14:31:52;10.20;99.90
6462;DHT22;3264;42.862;25.098;2022-12-24T14:34:21;10.20;99.90
6462;DHT22;3264;42.862;25.098;2022-12-24T14:36:51;10.10;99.90
6462;DHT22;3264;42.862;25.098;2022-12-24T14:39:23;10.10;99.90
6462;DHT22;3264;42.862;25.098;2022-12-24T14:42:02;10.00;99.90
6462;DHT22;3264;42.862;25.098;2022-12-24T14:44:40;9.90;99.90
6462;DHT22;3264;42.862;25.098;2022-12-24T14:47:24;9.80;99.90
6462;DHT22;3264;42.862;25.098;2022-12-24T14:50:17;9.90;99.90
6462;DHT22;3264;42.862;25.098;2022-12-24T14:52:57;9.80;99.90
6462;DHT22;3264;42.862;25.098;2022-12-24T14:55:35;9.80;99.90
6462;DHT22;3264;42.862;25.098;2022-12-24T14:58:25;9.80;99.90
6462;DHT22;3264;42.862;25.098;2022-12-24T15:00:56;9.70;99.90
6462;DHT22;3264;42.862;25.098;2022-12-24T15:03:34;9.60;99.90
6462;DHT22;3264;42.862;25.098;2022-12-24T15:06:04;9.50;99.90
6462;DHT22;3264;42.862;25.098;2022-12-24T15:08:38;9.40;99.90
6462;DHT22;3264;42.862;25.098;2022-12-24T15:11:12;9.40;99.90
6462;DHT22;3264;42.862;25.098;2022-12-24T15:13:44;9.40;99.90
6462;DHT22;3264;42.862;25.098;2022-12-24T15:16:20;9.40;99.90
6462;DHT22;3264;42.862;25.098;2022-12-24T15:18:55;9.30;99.90
6462;DHT22;3264;42.862;25.098;2022-12-24T15:21:29;9.30;99.90
6462;DHT22;3264;42.862;25.098;2022-12-24T15:23:57;9.30;99.90
6462;DHT22;3264;42.862;25.098;2022-12-24T15:26:29;9.20;99.90
6462;DHT22;3264;42.862;25.098;2022-12-24T15:28:59;9.10;99.90
6462;DHT22;3264;42.862;25.098;2022-12-24T15:31:28;9.10;99.90
6462;DHT22;3264;42.862;25.098;2022-12-24T15:33:59;9.20;99.90
6462;DHT22;3264;42.862;25.098;2022-12-24T15:36:30;9.20;99.90
6462;DHT22;3264;42.862;25.098;2022-12-24T15:39:02;9.10;99.90
6462;DHT22;3264;42.862;25.098;2022-12-24T15:41:36;9.10;99.90
6462;DHT22;3264;42.862;25.098;2022-12-24T15:44:26;9.10;99.90
6462;DHT22;3264;42.862;25.098;2022-12-24T15:46:58;9.10;99.90
6462;DHT22;3264;42.862;25.098;2022-12-24T15:49:29;9.10;99.90
6462;DHT22;3264;42.862;25.098;2022-12-24T15:52:09;9.10;99.90
6462;DHT22;3264;42.862;25.098;2022-12-24T15:54:42;9.10;99.90
6462;DHT22;3264;42.862;25.098;2022-12-24T15:57:23;9.10;99.90
6462;DHT22;3264;42.862;25.098;2022-12-24T15:59:53;9.10;99.90
6462;DHT22;3264;42.862;25.098;2022-12-24T16:02:37;9.00;99.90
6462;DHT22;3264;42.862;25.098;2022-12-24T16:05:30;9.00;99.90
6462;DHT22;3264;42.862;25.098;2022-12-24T16:08:18;8.90;99.90
6462;DHT22;3264;42.862;25.098;2022-12-24T16:10:51;9.00;99.90
6462;DHT22;3264;42.862;25.098;2022-12-24T16:13:22;9.00;99.90
6462;DHT22;3264;42.862;25.098;2022-12-24T16:15:53;9.10;99.90
6462;DHT22;3264;42.862;25.098;2022-12-24T16:18:25;9.00;99.90
6462;DHT22;3264;42.862;25.098;2022-12-24T16:20:56;9.00;99.90
6462;DHT22;3264;42.862;25.098;2022-12-24T16:23:28;8.90;99.90
6462;DHT22;3264;42.862;25.098;2022-12-24T16:26:01;8.90;99.90
6462;DHT22;3264;42.862;25.098;2022-12-24T16:28:30;8.90;99.90
6462;DHT22;3264;42.862;25.098;2022-12-24T16:30:59;8.90;99.90
6462;DHT22;3264;42.862;25.098;2022-12-24T16:33:28;9.00;99.90
6462;DHT22;3264;42.862;25.098;2022-12-24T16:35:58;9.00;99.90
6462;DHT22;3264;42.862;25.098;2022-12-24T16:38:26;8.90;99.90